sensor_id;sensor_type;location;lat;lon;timestamp;P1;durP1;ratioP1;P2;durP2;ratioP2
71038;SDS011;58692;43.212;27.908;2023-12-04T00:00:26;10.67;;;5.10;;
71038;SDS011;58692;43.212;27.908;2023-12-04T00:02:52;9.80;;;5.47;;
71038;SDS011;58692;43.212;27.908;2023-12-04T00:05:17;11.63;;;5.57;;
71038;SDS011;58692;43.212;27.908;2023-12-04T00:07:43;10.50;;;5.07;;
71038;SDS011;58692;43.212;27.908;2023-12-04T00:10:09;10.37;;;4.90;;
71038;SDS011;58692;43.212;27.908;2023-12-04T00:12:34;10.35;;;5.30;;
71038;SDS011;58692;43.212;27.908;2023-12-04T00:15:00;12.40;;;5.67;;
71038;SDS011;58692;43.212;27.908;2023-12-04T00:17:25;11.53;;;5.90;;
71038;SDS011;58692;43.212;27.908;2023-12-04T00:19:51;11.63;;;5.88;;
71038;SDS011;58692;43.212;27.908;2023-12-04T00:22:17;10.50;;;5.70;;
71038;SDS011;58692;43.212;27.908;2023-12-04T00:24:42;12.13;;;5.88;;
71038;SDS011;58692;43.212;27.908;2023-12-04T00:27:11;10.27;;;4.93;;
71038;SDS011;58692;43.212;27.908;2023-12-04T00:29:37;10.97;;;5.70;;
71038;SDS011;58692;43.212;27.908;2023-12-04T00:32:02;11.75;;;5.70;;
71038;SDS011;58692;43.212;27.908;2023-12-04T00:34:28;11.43;;;5.50;;
71038;SDS011;58692;43.212;27.908;2023-12-04T00:36:54;11.88;;;5.97;;
71038;SDS011;58692;43.212;27.908;2023-12-04T00:39:19;13.37;;;6.00;;
71038;SDS011;58692;43.212;27.908;2023-12-04T00:41:45;12.13;;;6.23;;
71038;SDS011;58692;43.212;27.908;2023-12-04T00:44:10;13.13;;;6.30;;
71038;SDS011;58692;43.212;27.908;2023-12-04T00:46:36;12.57;;;6.43;;
71038;SDS011;58692;43.212;27.908;2023-12-04T00:49:01;10.97;;;5.43;;
71038;SDS011;58692;43.212;27.908;2023-12-04T00:51:27;12.63;;;6.80;;
71038;SDS011;58692;43.212;27.908;2023-12-04T00:53:52;14.93;;;6.80;;
71038;SDS011;58692;43.212;27.908;2023-12-04T00:56:18;14.40;;;6.95;;
71038;SDS011;58692;43.212;27.908;2023-12-04T00:58:45;13.85;;;7.05;;
71038;SDS011;58692;43.212;27.908;2023-12-04T01:01:11;12.10;;;6.57;;
71038;SDS011;58692;43.212;27.908;2023-12-04T01:03:37;11.57;;;6.30;;
71038;SDS011;58692;43.212;27.908;2023-12-04T01:06:03;16.92;;;7.10;;
71038;SDS011;58692;43.212;27.908;2023-12-04T01:08:29;15.10;;;7.77;;
71038;SDS011;58692;43.212;27.908;2023-12-04T01:10:54;12.73;;;7.33;;
71038;SDS011;58692;43.212;27.908;2023-12-04T01:13:20;13.10;;;6.60;;
71038;SDS011;58692;43.212;27.908;2023-12-04T01:15:45;14.87;;;7.43;;
71038;SDS011;58692;43.212;27.908;2023-12-04T01:18:13;14.68;;;7.25;;
71038;SDS011;58692;43.212;27.908;2023-12-04T01:20:39;14.13;;;6.90;;
71038;SDS011;58692;43.212;27.908;2023-12-04T01:23:04;14.07;;;6.70;;
71038;SDS011;58692;43.212;27.908;2023-12-04T01:25:30;14.90;;;7.70;;
71038;SDS011;58692;43.212;27.908;2023-12-04T01:27:55;14.40;;;7.45;;
71038;SDS011;58692;43.212;27.908;2023-12-04T01:30:21;15.40;;;7.87;;
71038;SDS011;58692;43.212;27.908;2023-12-04T01:32:46;14.13;;;7.20;;
71038;SDS011;58692;43.212;27.908;2023-12-04T01:35:12;14.90;;;7.20;;
71038;SDS011;58692;43.212;27.908;2023-12-04T01:37:38;15.60;;;6.90;;
71038;SDS011;58692;43.212;27.908;2023-12-04T01:40:04;14.63;;;6.90;;
71038;SDS011;58692;43.212;27.908;2023-12-04T01:42:32;13.23;;;7.05;;
71038;SDS011;58692;43.212;27.908;2023-12-04T01:44:57;13.40;;;7.23;;
71038;SDS011;58692;43.212;27.908;2023-12-04T01:47:23;12.52;;;6.38;;
71038;SDS011;58692;43.212;27.908;2023-12-04T01:49:49;12.88;;;6.80;;
71038;SDS011;58692;43.212;27.908;2023-12-04T01:52:15;12.10;;;6.60;;
71038;SDS011;58692;43.212;27.908;2023-12-04T01:54:43;12.75;;;6.28;;
71038;SDS011;58692;43.212;27.908;2023-12-04T01:57:09;14.73;;;7.13;;
71038;SDS011;58692;43.212;27.908;2023-12-04T01:59:36;13.25;;;6.32;;
71038;SDS011;58692;43.212;27.908;2023-12-04T02:02:01;12.13;;;6.40;;
71038;SDS011;58692;43.212;27.908;2023-12-04T02:04:27;14.65;;;7.13;;
71038;SDS011;58692;43.212;27.908;2023-12-04T02:06:53;13.83;;;7.23;;
71038;SDS011;58692;43.212;27.908;2023-12-04T02:09:19;14.00;;;6.95;;
71038;SDS011;58692;43.212;27.908;2023-12-04T02:11:45;14.30;;;7.57;;
71038;SDS011;58692;43.212;27.908;2023-12-04T02:14:10;13.37;;;6.73;;
71038;SDS011;58692;43.212;27.908;2023-12-04T02:16:38;13.02;;;6.45;;
71038;SDS011;58692;43.212;27.908;2023-12-04T02:19:07;14.03;;;6.80;;
71038;SDS011;58692;43.212;27.908;2023-12-04T02:21:34;12.40;;;6.22;;
71038;SDS011;58692;43.212;27.908;2023-12-04T02:23:59;12.98;;;6.63;;
71038;SDS011;58692;43.212;27.908;2023-12-04T02:26:28;12.53;;;6.53;;
71038;SDS011;58692;43.212;27.908;2023-12-04T02:28:58;12.45;;;6.70;;
71038;SDS011;58692;43.212;27.908;2023-12-04T02:31:26;12.93;;;6.53;;
71038;SDS011;58692;43.212;27.908;2023-12-04T02:33:55;12.52;;;6.32;;
71038;SDS011;58692;43.212;27.908;2023-12-04T02:36:22;10.87;;;6.03;;
71038;SDS011;58692;43.212;27.908;2023-12-04T02:38:50;13.07;;;6.72;;
71038;SDS011;58692;43.212;27.908;2023-12-04T02:41:16;14.18;;;6.97;;
71038;SDS011;58692;43.212;27.908;2023-12-04T02:43:43;13.85;;;7.18;;
71038;SDS011;58692;43.212;27.908;2023-12-04T02:46:08;14.33;;;7.30;;
71038;SDS011;58692;43.212;27.908;2023-12-04T02:48:34;14.73;;;6.90;;
71038;SDS011;58692;43.212;27.908;2023-12-04T02:51:00;14.93;;;7.53;;
71038;SDS011;58692;43.212;27.908;2023-12-04T02:53:26;14.47;;;7.10;;
71038;SDS011;58692;43.212;27.908;2023-12-04T02:55:51;14.57;;;7.25;;
71038;SDS011;58692;43.212;27.908;2023-12-04T02:58:17;13.53;;;6.60;;
71038;SDS011;58692;43.212;27.908;2023-12-04T03:00:43;18.20;;;8.02;;
71038;SDS011;58692;43.212;27.908;2023-12-04T03:03:08;14.07;;;7.37;;
71038;SDS011;58692;43.212;27.908;2023-12-04T03:05:34;14.07;;;7.40;;
71038;SDS011;58692;43.212;27.908;2023-12-04T03:07:59;14.38;;;7.07;;
71038;SDS011;58692;43.212;27.908;2023-12-04T03:10:25;14.23;;;7.17;;
71038;SDS011;58692;43.212;27.908;2023-12-04T03:12:50;15.00;;;7.53;;
71038;SDS011;58692;43.212;27.908;2023-12-04T03:15:16;15.03;;;7.03;;
71038;SDS011;58692;43.212;27.908;2023-12-04T03:17:41;13.43;;;7.70;;
71038;SDS011;58692;43.212;27.908;2023-12-04T03:20:07;15.00;;;7.90;;
71038;SDS011;58692;43.212;27.908;2023-12-04T03:22:34;17.03;;;7.80;;
71038;SDS011;58692;43.212;27.908;2023-12-04T03:25:01;16.58;;;8.18;;
71038;SDS011;58692;43.212;27.908;2023-12-04T03:27:26;15.83;;;7.67;;
71038;SDS011;58692;43.212;27.908;2023-12-04T03:29:52;17.83;;;8.80;;
71038;SDS011;58692;43.212;27.908;2023-12-04T03:32:17;15.23;;;8.13;;
71038;SDS011;58692;43.212;27.908;2023-12-04T03:34:43;16.87;;;7.73;;
71038;SDS011;58692;43.212;27.908;2023-12-04T03:37:08;17.05;;;7.95;;
71038;SDS011;58692;43.212;27.908;2023-12-04T03:39:34;17.30;;;9.23;;
71038;SDS011;58692;43.212;27.908;2023-12-04T03:41:59;16.43;;;7.97;;
71038;SDS011;58692;43.212;27.908;2023-12-04T03:44:25;15.73;;;8.48;;
71038;SDS011;58692;43.212;27.908;2023-12-04T03:46:51;17.57;;;8.23;;
71038;SDS011;58692;43.212;27.908;2023-12-04T03:49:17;16.52;;;8.25;;
71038;SDS011;58692;43.212;27.908;2023-12-04T03:51:42;17.00;;;8.60;;
71038;SDS011;58692;43.212;27.908;2023-12-04T03:54:08;18.48;;;8.73;;
71038;SDS011;58692;43.212;27.908;2023-12-04T03:56:33;15.93;;;8.07;;
71038;SDS011;58692;43.212;27.908;2023-12-04T03:58:59;15.30;;;8.55;;
71038;SDS011;58692;43.212;27.908;2023-12-04T04:01:25;16.40;;;8.00;;
71038;SDS011;58692;43.212;27.908;2023-12-04T04:03:50;18.07;;;8.57;;
71038;SDS011;58692;43.212;27.908;2023-12-04T04:06:16;17.07;;;9.13;;
71038;SDS011;58692;43.212;27.908;2023-12-04T04:08:41;21.38;;;10.30;;
71038;SDS011;58692;43.212;27.908;2023-12-04T04:11:07;20.53;;;9.67;;
71038;SDS011;58692;43.212;27.908;2023-12-04T04:13:33;20.57;;;10.60;;
71038;SDS011;58692;43.212;27.908;2023-12-04T04:15:58;18.75;;;8.80;;
71038;SDS011;58692;43.212;27.908;2023-12-04T04:18:24;19.30;;;9.13;;
71038;SDS011;58692;43.212;27.908;2023-12-04T04:20:50;20.60;;;9.70;;
71038;SDS011;58692;43.212;27.908;2023-12-04T04:23:15;17.38;;;8.45;;
71038;SDS011;58692;43.212;27.908;2023-12-04T04:25:41;18.17;;;9.37;;
71038;SDS011;58692;43.212;27.908;2023-12-04T04:28:06;19.30;;;8.93;;
71038;SDS011;58692;43.212;27.908;2023-12-04T04:30:32;17.70;;;9.17;;
71038;SDS011;58692;43.212;27.908;2023-12-04T04:32:57;16.48;;;8.05;;
71038;SDS011;58692;43.212;27.908;2023-12-04T04:35:23;16.50;;;8.23;;
71038;SDS011;58692;43.212;27.908;2023-12-04T04:37:49;17.25;;;8.82;;
71038;SDS011;58692;43.212;27.908;2023-12-04T04:40:15;16.52;;;8.48;;
71038;SDS011;58692;43.212;27.908;2023-12-04T04:42:41;18.13;;;8.57;;
71038;SDS011;58692;43.212;27.908;2023-12-04T04:45:07;16.35;;;8.43;;
71038;SDS011;58692;43.212;27.908;2023-12-04T04:47:33;17.40;;;8.80;;
71038;SDS011;58692;43.212;27.908;2023-12-04T04:49:58;18.60;;;9.35;;
71038;SDS011;58692;43.212;27.908;2023-12-04T04:52:24;20.27;;;10.87;;
71038;SDS011;58692;43.212;27.908;2023-12-04T04:54:49;20.00;;;10.60;;
71038;SDS011;58692;43.212;27.908;2023-12-04T04:57:15;19.10;;;9.90;;
71038;SDS011;58692;43.212;27.908;2023-12-04T04:59:40;19.40;;;10.17;;
71038;SDS011;58692;43.212;27.908;2023-12-04T05:02:06;18.80;;;10.05;;
71038;SDS011;58692;43.212;27.908;2023-12-04T05:04:31;20.20;;;10.03;;
71038;SDS011;58692;43.212;27.908;2023-12-04T05:06:57;19.05;;;10.32;;
71038;SDS011;58692;43.212;27.908;2023-12-04T05:09:23;26.27;;;12.77;;
71038;SDS011;58692;43.212;27.908;2023-12-04T05:11:49;23.83;;;12.23;;
71038;SDS011;58692;43.212;27.908;2023-12-04T05:14:14;26.60;;;15.07;;
71038;SDS011;58692;43.212;27.908;2023-12-04T05:16:40;29.35;;;14.98;;
71038;SDS011;58692;43.212;27.908;2023-12-04T05:19:06;27.60;;;14.37;;
71038;SDS011;58692;43.212;27.908;2023-12-04T05:21:32;24.08;;;13.02;;
71038;SDS011;58692;43.212;27.908;2023-12-04T05:23:57;24.83;;;13.23;;
71038;SDS011;58692;43.212;27.908;2023-12-04T05:26:23;19.85;;;10.65;;
71038;SDS011;58692;43.212;27.908;2023-12-04T05:28:51;21.17;;;11.20;;
71038;SDS011;58692;43.212;27.908;2023-12-04T05:31:34;19.85;;;11.45;;
71038;SDS011;58692;43.212;27.908;2023-12-04T05:34:00;21.27;;;11.47;;
71038;SDS011;58692;43.212;27.908;2023-12-04T05:36:28;21.02;;;10.77;;
71038;SDS011;58692;43.212;27.908;2023-12-04T05:38:57;19.27;;;10.10;;
71038;SDS011;58692;43.212;27.908;2023-12-04T05:41:25;19.90;;;10.43;;
71038;SDS011;58692;43.212;27.908;2023-12-04T05:43:50;21.75;;;10.32;;
71038;SDS011;58692;43.212;27.908;2023-12-04T05:46:19;19.35;;;10.07;;
71038;SDS011;58692;43.212;27.908;2023-12-04T05:48:44;20.37;;;10.47;;
71038;SDS011;58692;43.212;27.908;2023-12-04T05:51:10;20.73;;;10.50;;
71038;SDS011;58692;43.212;27.908;2023-12-04T05:53:36;19.42;;;9.98;;
71038;SDS011;58692;43.212;27.908;2023-12-04T05:56:02;19.90;;;9.67;;
71038;SDS011;58692;43.212;27.908;2023-12-04T05:58:36;20.85;;;10.70;;
71038;SDS011;58692;43.212;27.908;2023-12-04T06:01:02;22.67;;;11.05;;
71038;SDS011;58692;43.212;27.908;2023-12-04T06:03:28;20.33;;;9.47;;
71038;SDS011;58692;43.212;27.908;2023-12-04T06:12:01;18.27;;;9.65;;
71038;SDS011;58692;43.212;27.908;2023-12-04T06:14:33;17.97;;;9.17;;
71038;SDS011;58692;43.212;27.908;2023-12-04T06:17:01;21.20;;;10.52;;
71038;SDS011;58692;43.212;27.908;2023-12-04T06:19:27;18.10;;;9.25;;
71038;SDS011;58692;43.212;27.908;2023-12-04T06:21:54;19.13;;;9.50;;
71038;SDS011;58692;43.212;27.908;2023-12-04T06:24:20;21.30;;;9.33;;
71038;SDS011;58692;43.212;27.908;2023-12-04T06:26:48;21.65;;;11.23;;
71038;SDS011;58692;43.212;27.908;2023-12-04T06:29:15;20.38;;;10.68;;
71038;SDS011;58692;43.212;27.908;2023-12-04T06:31:45;24.17;;;10.77;;
71038;SDS011;58692;43.212;27.908;2023-12-04T06:34:11;20.20;;;10.45;;
71038;SDS011;58692;43.212;27.908;2023-12-04T06:36:37;21.93;;;10.40;;
71038;SDS011;58692;43.212;27.908;2023-12-04T06:39:09;21.27;;;10.70;;
71038;SDS011;58692;43.212;27.908;2023-12-04T06:41:38;20.70;;;10.40;;
71038;SDS011;58692;43.212;27.908;2023-12-04T06:44:08;21.00;;;10.60;;
71038;SDS011;58692;43.212;27.908;2023-12-04T06:46:37;23.80;;;11.85;;
71038;SDS011;58692;43.212;27.908;2023-12-04T06:49:05;22.10;;;11.17;;
71038;SDS011;58692;43.212;27.908;2023-12-04T06:51:35;22.77;;;11.07;;
71038;SDS011;58692;43.212;27.908;2023-12-04T06:54:00;22.45;;;12.30;;
71038;SDS011;58692;43.212;27.908;2023-12-04T06:56:26;24.15;;;12.73;;
71038;SDS011;58692;43.212;27.908;2023-12-04T06:58:52;24.60;;;12.33;;
71038;SDS011;58692;43.212;27.908;2023-12-04T07:01:17;21.43;;;11.10;;
71038;SDS011;58692;43.212;27.908;2023-12-04T07:03:43;20.93;;;10.47;;
71038;SDS011;58692;43.212;27.908;2023-12-04T07:06:09;19.53;;;9.80;;
71038;SDS011;58692;43.212;27.908;2023-12-04T07:08:34;19.15;;;10.25;;
71038;SDS011;58692;43.212;27.908;2023-12-04T07:11:00;20.87;;;10.53;;
71038;SDS011;58692;43.212;27.908;2023-12-04T07:13:26;21.58;;;10.88;;
71038;SDS011;58692;43.212;27.908;2023-12-04T07:15:51;22.13;;;10.33;;
71038;SDS011;58692;43.212;27.908;2023-12-04T07:18:17;18.88;;;9.90;;
71038;SDS011;58692;43.212;27.908;2023-12-04T07:20:45;19.57;;;10.40;;
71038;SDS011;58692;43.212;27.908;2023-12-04T07:23:10;20.13;;;10.43;;
71038;SDS011;58692;43.212;27.908;2023-12-04T07:25:36;16.05;;;8.48;;
71038;SDS011;58692;43.212;27.908;2023-12-04T07:28:02;20.37;;;9.10;;
71038;SDS011;58692;43.212;27.908;2023-12-04T07:30:28;17.75;;;8.88;;
71038;SDS011;58692;43.212;27.908;2023-12-04T07:32:53;19.20;;;9.40;;
71038;SDS011;58692;43.212;27.908;2023-12-04T07:35:19;21.73;;;11.17;;
71038;SDS011;58692;43.212;27.908;2023-12-04T07:37:45;19.10;;;10.27;;
71038;SDS011;58692;43.212;27.908;2023-12-04T07:40:11;20.23;;;9.67;;
71038;SDS011;58692;43.212;27.908;2023-12-04T07:42:37;19.77;;;9.52;;
71038;SDS011;58692;43.212;27.908;2023-12-04T07:45:07;19.10;;;10.05;;
71038;SDS011;58692;43.212;27.908;2023-12-04T07:47:36;17.93;;;9.70;;
71038;SDS011;58692;43.212;27.908;2023-12-04T07:50:05;21.67;;;9.90;;
71038;SDS011;58692;43.212;27.908;2023-12-04T07:52:31;20.08;;;10.48;;
71038;SDS011;58692;43.212;27.908;2023-12-04T07:55:00;19.42;;;9.63;;
71038;SDS011;58692;43.212;27.908;2023-12-04T07:57:25;17.13;;;8.77;;
71038;SDS011;58692;43.212;27.908;2023-12-04T07:59:52;19.15;;;9.65;;
71038;SDS011;58692;43.212;27.908;2023-12-04T08:02:20;20.85;;;9.93;;
71038;SDS011;58692;43.212;27.908;2023-12-04T08:04:46;19.92;;;9.02;;
71038;SDS011;58692;43.212;27.908;2023-12-04T08:07:12;22.50;;;10.10;;
71038;SDS011;58692;43.212;27.908;2023-12-04T08:09:38;20.73;;;9.50;;
71038;SDS011;58692;43.212;27.908;2023-12-04T08:12:11;21.02;;;10.68;;
71038;SDS011;58692;43.212;27.908;2023-12-04T08:14:37;21.77;;;9.97;;
71038;SDS011;58692;43.212;27.908;2023-12-04T08:17:05;25.02;;;11.65;;
71038;SDS011;58692;43.212;27.908;2023-12-04T08:19:31;23.25;;;12.07;;
71038;SDS011;58692;43.212;27.908;2023-12-04T08:22:00;22.37;;;11.00;;
71038;SDS011;58692;43.212;27.908;2023-12-04T08:24:31;23.40;;;11.20;;
71038;SDS011;58692;43.212;27.908;2023-12-04T08:26:57;21.20;;;10.65;;
71038;SDS011;58692;43.212;27.908;2023-12-04T08:29:28;20.70;;;10.40;;
71038;SDS011;58692;43.212;27.908;2023-12-04T08:31:56;17.80;;;9.55;;
71038;SDS011;58692;43.212;27.908;2023-12-04T08:34:22;18.85;;;9.68;;
71038;SDS011;58692;43.212;27.908;2023-12-04T08:36:48;18.13;;;9.40;;
71038;SDS011;58692;43.212;27.908;2023-12-04T08:39:14;19.52;;;10.02;;
71038;SDS011;58692;43.212;27.908;2023-12-04T08:41:39;20.45;;;9.63;;
71038;SDS011;58692;43.212;27.908;2023-12-04T08:44:07;22.00;;;9.83;;
71038;SDS011;58692;43.212;27.908;2023-12-04T08:46:33;18.23;;;9.48;;
71038;SDS011;58692;43.212;27.908;2023-12-04T08:48:59;18.45;;;8.95;;
71038;SDS011;58692;43.212;27.908;2023-12-04T08:51:25;20.20;;;9.60;;
71038;SDS011;58692;43.212;27.908;2023-12-04T08:53:50;20.70;;;10.40;;
71038;SDS011;58692;43.212;27.908;2023-12-04T08:56:16;17.33;;;8.87;;
71038;SDS011;58692;43.212;27.908;2023-12-04T08:58:43;18.75;;;9.50;;
71038;SDS011;58692;43.212;27.908;2023-12-04T09:01:18;20.33;;;9.73;;
71038;SDS011;58692;43.212;27.908;2023-12-04T09:03:44;19.15;;;9.88;;
71038;SDS011;58692;43.212;27.908;2023-12-04T09:06:09;18.57;;;8.57;;
71038;SDS011;58692;43.212;27.908;2023-12-04T09:08:35;16.65;;;8.55;;
71038;SDS011;58692;43.212;27.908;2023-12-04T09:11:01;22.07;;;9.67;;
71038;SDS011;58692;43.212;27.908;2023-12-04T09:13:26;17.83;;;8.77;;
71038;SDS011;58692;43.212;27.908;2023-12-04T09:15:54;20.17;;;8.95;;
71038;SDS011;58692;43.212;27.908;2023-12-04T09:18:19;20.48;;;8.38;;
71038;SDS011;58692;43.212;27.908;2023-12-04T09:20:45;17.70;;;9.10;;
71038;SDS011;58692;43.212;27.908;2023-12-04T09:23:11;23.00;;;11.35;;
71038;SDS011;58692;43.212;27.908;2023-12-04T09:25:37;20.50;;;10.10;;
71038;SDS011;58692;43.212;27.908;2023-12-04T09:28:03;20.40;;;9.55;;
71038;SDS011;58692;43.212;27.908;2023-12-04T09:30:28;18.40;;;9.80;;
71038;SDS011;58692;43.212;27.908;2023-12-04T09:32:54;16.73;;;9.00;;
71038;SDS011;58692;43.212;27.908;2023-12-04T09:35:20;18.33;;;8.73;;
71038;SDS011;58692;43.212;27.908;2023-12-04T09:37:48;21.13;;;9.63;;
71038;SDS011;58692;43.212;27.908;2023-12-04T09:40:16;18.23;;;10.10;;
71038;SDS011;58692;43.212;27.908;2023-12-04T09:42:42;20.17;;;9.57;;
71038;SDS011;58692;43.212;27.908;2023-12-04T09:45:10;21.52;;;9.80;;
71038;SDS011;58692;43.212;27.908;2023-12-04T09:47:38;18.73;;;9.32;;
71038;SDS011;58692;43.212;27.908;2023-12-04T09:50:04;20.53;;;9.23;;
71038;SDS011;58692;43.212;27.908;2023-12-04T09:52:30;19.88;;;9.70;;
71038;SDS011;58692;43.212;27.908;2023-12-04T09:54:59;19.42;;;9.25;;
71038;SDS011;58692;43.212;27.908;2023-12-04T09:57:28;21.25;;;9.65;;
71038;SDS011;58692;43.212;27.908;2023-12-04T09:59:54;16.50;;;8.10;;
71038;SDS011;58692;43.212;27.908;2023-12-04T10:02:22;16.55;;;8.48;;
71038;SDS011;58692;43.212;27.908;2023-12-04T10:04:48;18.13;;;8.35;;
71038;SDS011;58692;43.212;27.908;2023-12-04T10:07:14;20.57;;;8.83;;
71038;SDS011;58692;43.212;27.908;2023-12-04T10:09:42;18.98;;;8.50;;
71038;SDS011;58692;43.212;27.908;2023-12-04T10:12:08;21.02;;;8.98;;
71038;SDS011;58692;43.212;27.908;2023-12-04T10:14:37;22.80;;;9.30;;
71038;SDS011;58692;43.212;27.908;2023-12-04T10:19:45;22.23;;;8.50;;
71038;SDS011;58692;43.212;27.908;2023-12-04T10:22:11;23.45;;;9.13;;
71038;SDS011;58692;43.212;27.908;2023-12-04T10:24:39;20.73;;;9.90;;
71038;SDS011;58692;43.212;27.908;2023-12-04T10:27:05;19.60;;;9.75;;
71038;SDS011;58692;43.212;27.908;2023-12-04T10:29:41;24.88;;;10.55;;
71038;SDS011;58692;43.212;27.908;2023-12-04T10:32:12;23.17;;;9.55;;
71038;SDS011;58692;43.212;27.908;2023-12-04T10:34:47;20.57;;;9.30;;
71038;SDS011;58692;43.212;27.908;2023-12-04T10:37:14;17.83;;;8.80;;
71038;SDS011;58692;43.212;27.908;2023-12-04T10:39:48;20.77;;;9.30;;
71038;SDS011;58692;43.212;27.908;2023-12-04T10:42:25;18.30;;;9.18;;
71038;SDS011;58692;43.212;27.908;2023-12-04T10:44:56;20.42;;;9.10;;
71038;SDS011;58692;43.212;27.908;2023-12-04T10:47:23;18.17;;;8.77;;
71038;SDS011;58692;43.212;27.908;2023-12-04T10:49:50;19.88;;;8.35;;
71038;SDS011;58692;43.212;27.908;2023-12-04T10:52:21;16.08;;;8.13;;
71038;SDS011;58692;43.212;27.908;2023-12-04T10:54:50;20.95;;;8.23;;
71038;SDS011;58692;43.212;27.908;2023-12-04T10:57:19;19.38;;;8.13;;
71038;SDS011;58692;43.212;27.908;2023-12-04T10:59:55;17.50;;;8.43;;
71038;SDS011;58692;43.212;27.908;2023-12-04T11:02:25;21.08;;;9.85;;
71038;SDS011;58692;43.212;27.908;2023-12-04T11:04:54;18.33;;;8.55;;
71038;SDS011;58692;43.212;27.908;2023-12-04T11:07:48;16.52;;;8.43;;
71038;SDS011;58692;43.212;27.908;2023-12-04T11:10:19;18.63;;;9.07;;
71038;SDS011;58692;43.212;27.908;2023-12-04T11:12:49;18.13;;;8.70;;
71038;SDS011;58692;43.212;27.908;2023-12-04T11:15:20;17.83;;;8.73;;
71038;SDS011;58692;43.212;27.908;2023-12-04T11:17:51;20.23;;;9.55;;
71038;SDS011;58692;43.212;27.908;2023-12-04T11:20:24;22.50;;;9.82;;
71038;SDS011;58692;43.212;27.908;2023-12-04T11:22:52;20.88;;;9.90;;
71038;SDS011;58692;43.212;27.908;2023-12-04T11:25:20;23.67;;;9.60;;
71038;SDS011;58692;43.212;27.908;2023-12-04T11:27:50;21.95;;;10.55;;
71038;SDS011;58692;43.212;27.908;2023-12-04T11:30:17;23.45;;;10.00;;
71038;SDS011;58692;43.212;27.908;2023-12-04T11:32:50;22.05;;;9.93;;
71038;SDS011;58692;43.212;27.908;2023-12-04T11:35:16;23.13;;;10.13;;
71038;SDS011;58692;43.212;27.908;2023-12-04T11:37:44;22.63;;;9.57;;
71038;SDS011;58692;43.212;27.908;2023-12-04T11:40:12;22.48;;;10.23;;
71038;SDS011;58692;43.212;27.908;2023-12-04T11:42:41;28.17;;;11.10;;
71038;SDS011;58692;43.212;27.908;2023-12-04T11:45:31;30.65;;;10.27;;
71038;SDS011;58692;43.212;27.908;2023-12-04T11:47:59;24.40;;;10.70;;
71038;SDS011;58692;43.212;27.908;2023-12-04T11:50:25;23.17;;;11.32;;
71038;SDS011;58692;43.212;27.908;2023-12-04T11:52:52;21.25;;;9.82;;
71038;SDS011;58692;43.212;27.908;2023-12-04T11:55:20;22.92;;;10.18;;
71038;SDS011;58692;43.212;27.908;2023-12-04T11:57:47;21.60;;;10.50;;
71038;SDS011;58692;43.212;27.908;2023-12-04T12:02:48;21.20;;;9.23;;
71038;SDS011;58692;43.212;27.908;2023-12-04T12:05:27;22.52;;;9.80;;
71038;SDS011;58692;43.212;27.908;2023-12-04T12:07:54;23.10;;;10.03;;
71038;SDS011;58692;43.212;27.908;2023-12-04T12:10:21;21.85;;;10.00;;
71038;SDS011;58692;43.212;27.908;2023-12-04T12:12:46;20.63;;;9.15;;
71038;SDS011;58692;43.212;27.908;2023-12-04T12:15:13;23.55;;;9.82;;
71038;SDS011;58692;43.212;27.908;2023-12-04T12:17:41;23.75;;;9.57;;
71038;SDS011;58692;43.212;27.908;2023-12-04T12:20:08;23.73;;;9.87;;
71038;SDS011;58692;43.212;27.908;2023-12-04T12:22:35;25.70;;;10.10;;
71038;SDS011;58692;43.212;27.908;2023-12-04T12:25:06;23.02;;;10.20;;
71038;SDS011;58692;43.212;27.908;2023-12-04T12:27:33;20.67;;;9.38;;
71038;SDS011;58692;43.212;27.908;2023-12-04T12:29:59;23.00;;;9.30;;
71038;SDS011;58692;43.212;27.908;2023-12-04T12:32:25;22.20;;;9.60;;
71038;SDS011;58692;43.212;27.908;2023-12-04T12:34:52;22.30;;;9.57;;
71038;SDS011;58692;43.212;27.908;2023-12-04T12:37:18;21.35;;;10.77;;
71038;SDS011;58692;43.212;27.908;2023-12-04T12:39:44;25.80;;;10.83;;
71038;SDS011;58692;43.212;27.908;2023-12-04T12:42:09;23.05;;;10.45;;
71038;SDS011;58692;43.212;27.908;2023-12-04T12:44:38;22.30;;;9.73;;
71038;SDS011;58692;43.212;27.908;2023-12-04T12:47:05;23.97;;;10.20;;
71038;SDS011;58692;43.212;27.908;2023-12-04T12:49:32;24.13;;;9.10;;
71038;SDS011;58692;43.212;27.908;2023-12-04T12:51:59;25.23;;;10.20;;
71038;SDS011;58692;43.212;27.908;2023-12-04T12:54:25;22.38;;;9.95;;
71038;SDS011;58692;43.212;27.908;2023-12-04T12:56:51;23.90;;;9.18;;
71038;SDS011;58692;43.212;27.908;2023-12-04T12:59:17;20.13;;;8.87;;
71038;SDS011;58692;43.212;27.908;2023-12-04T13:01:43;18.02;;;8.15;;
71038;SDS011;58692;43.212;27.908;2023-12-04T13:04:13;21.93;;;8.97;;
71038;SDS011;58692;43.212;27.908;2023-12-04T13:06:40;20.80;;;9.43;;
71038;SDS011;58692;43.212;27.908;2023-12-04T13:09:06;21.77;;;9.68;;
71038;SDS011;58692;43.212;27.908;2023-12-04T13:11:32;17.63;;;8.43;;
71038;SDS011;58692;43.212;27.908;2023-12-04T13:13:58;20.10;;;9.20;;
71038;SDS011;58692;43.212;27.908;2023-12-04T13:16:24;21.23;;;9.85;;
71038;SDS011;58692;43.212;27.908;2023-12-04T13:18:50;22.25;;;10.85;;
71038;SDS011;58692;43.212;27.908;2023-12-04T13:21:16;22.00;;;10.10;;
71038;SDS011;58692;43.212;27.908;2023-12-04T13:23:41;20.20;;;9.37;;
71038;SDS011;58692;43.212;27.908;2023-12-04T13:26:10;19.73;;;8.48;;
71038;SDS011;58692;43.212;27.908;2023-12-04T13:28:37;20.88;;;8.82;;
71038;SDS011;58692;43.212;27.908;2023-12-04T13:31:04;19.33;;;8.73;;
71038;SDS011;58692;43.212;27.908;2023-12-04T13:33:33;18.38;;;8.23;;
71038;SDS011;58692;43.212;27.908;2023-12-04T13:35:59;17.63;;;8.88;;
71038;SDS011;58692;43.212;27.908;2023-12-04T13:38:25;18.98;;;8.80;;
71038;SDS011;58692;43.212;27.908;2023-12-04T13:40:51;20.73;;;9.03;;
71038;SDS011;58692;43.212;27.908;2023-12-04T13:43:26;15.43;;;7.82;;
71038;SDS011;58692;43.212;27.908;2023-12-04T13:46:07;22.35;;;9.50;;
71038;SDS011;58692;43.212;27.908;2023-12-04T13:48:34;18.45;;;8.50;;
71038;SDS011;58692;43.212;27.908;2023-12-04T13:51:00;21.23;;;8.47;;
71038;SDS011;58692;43.212;27.908;2023-12-04T13:53:26;18.02;;;8.85;;
71038;SDS011;58692;43.212;27.908;2023-12-04T13:55:55;17.87;;;8.47;;
71038;SDS011;58692;43.212;27.908;2023-12-04T13:58:40;26.48;;;9.38;;
71038;SDS011;58692;43.212;27.908;2023-12-04T14:01:10;20.75;;;9.00;;
71038;SDS011;58692;43.212;27.908;2023-12-04T14:03:39;19.65;;;8.60;;
71038;SDS011;58692;43.212;27.908;2023-12-04T14:06:07;22.20;;;9.02;;
71038;SDS011;58692;43.212;27.908;2023-12-04T14:08:33;17.87;;;8.13;;
71038;SDS011;58692;43.212;27.908;2023-12-04T14:10:59;19.70;;;8.52;;
71038;SDS011;58692;43.212;27.908;2023-12-04T14:13:32;20.73;;;9.32;;
71038;SDS011;58692;43.212;27.908;2023-12-04T14:16:00;17.63;;;8.30;;
71038;SDS011;58692;43.212;27.908;2023-12-04T14:18:39;21.03;;;9.37;;
71038;SDS011;58692;43.212;27.908;2023-12-04T14:21:13;22.35;;;10.18;;
71038;SDS011;58692;43.212;27.908;2023-12-04T14:23:42;20.60;;;9.18;;
71038;SDS011;58692;43.212;27.908;2023-12-04T14:26:09;19.40;;;9.45;;
71038;SDS011;58692;43.212;27.908;2023-12-04T14:28:36;18.63;;;8.73;;